Time,TemperatureF,DewpointF,PressureIn,WindDirection,WindDirectionDegrees,WindSpeedMPH,WindSpeedGustMPH,Humidity,HourlyPrecipIn,Conditions,Clouds,dailyrainin,SoftwareType,DateUTC
2013-02-05 00:00:00,9.0,2.7,29.90,SE,126,0.0,4.0,75,0.00,,,0.00,meteohub,2013-02-05 05:00:00,
2013-02-05 00:01:00,9.0,2.3,29.90,SE,127,0.0,4.0,74,0.00,,,0.00,meteohub,2013-02-05 05:01:00,
2013-02-05 00:02:00,9.0,2.3,29.90,SE,127,0.0,4.0,74,0.00,,,0.00,meteohub,2013-02-05 05:02:00,
2013-02-05 00:07:00,8.8,2.1,29.90,NNW,338,0.0,4.0,74,0.00,,,0.00,meteohub,2013-02-05 05:07:00,
2013-02-05 00:08:00,8.8,2.5,29.90,NNW,338,0.0,4.0,75,0.00,,,0.00,meteohub,2013-02-05 05:08:00,
2013-02-05 00:14:00,8.6,2.3,29.90,NNW,338,0.0,4.0,75,0.00,,,0.00,meteohub,2013-02-05 05:14:00,
2013-02-05 00:19:00,8.4,2.1,29.90,NNW,338,0.0,4.0,75,0.00,,,0.00,meteohub,2013-02-05 05:19:00,
2013-02-05 00:24:00,8.1,1.8,29.90,NW,317,0.0,4.0,75,0.00,,,0.00,meteohub,2013-02-05 05:24:00,
2013-02-05 00:29:00,8.1,2.1,29.90,NW,317,0.0,2.0,76,0.00,,,0.00,meteohub,2013-02-05 05:29:00,
2013-02-05 00:34:00,7.9,1.9,29.90,NW,317,0.0,2.0,76,0.00,,,0.00,meteohub,2013-02-05 05:34:00,
2013-02-05 00:39:00,7.9,2.1,29.90,NW,320,0.0,2.0,77,0.00,,,0.00,meteohub,2013-02-05 05:39:00,
2013-02-05 00:44:00,7.7,1.9,29.90,NW,320,0.0,1.0,77,0.00,,,0.00,meteohub,2013-02-05 05:44:00,
2013-02-05 00:49:00,7.7,1.9,29.90,NW,320,0.0,1.0,77,0.00,,,0.00,meteohub,2013-02-05 05:49:00,
2013-02-05 00:54:00,7.7,1.9,29.90,NW,320,0.0,1.0,77,0.00,,,0.00,meteohub,2013-02-05 05:54:00,
2013-02-05 00:59:00,7.5,2.1,29.90,NW,320,0.0,1.0,78,0.00,,,0.00,meteohub,2013-02-05 05:59:00,
2013-02-05 01:04:00,7.5,2.1,29.90,NNW,336,0.0,1.0,78,0.00,,,0.00,meteohub,2013-02-05 06:04:00,
2013-02-05 01:09:00,7.5,2.1,29.90,NNW,336,0.0,1.0,78,0.00,,,0.00,meteohub,2013-02-05 06:09:00,
2013-02-05 01:14:00,7.3,1.9,29.90,NNW,336,0.0,1.0,78,0.00,,,0.00,meteohub,2013-02-05 06:14:00,
2013-02-05 01:19:00,7.2,1.8,29.91,NNW,338,0.0,1.0,78,0.00,,,0.00,meteohub,2013-02-05 06:19:00,
2013-02-05 01:24:00,7.2,1.8,29.91,NNW,338,0.0,1.0,78,0.00,,,0.00,meteohub,2013-02-05 06:24:00,
2013-02-05 01:29:00,7.0,1.6,29.91,NNW,338,0.0,1.0,78,0.00,,,0.00,meteohub,2013-02-05 06:29:00,
2013-02-05 01:34:00,7.0,1.9,29.91,NNW,338,0.0,2.0,79,0.00,,,0.00,meteohub,2013-02-05 06:34:00,
2013-02-05 01:39:00,7.0,1.9,29.92,NNW,334,1.0,2.0,79,0.00,,,0.00,meteohub,2013-02-05 06:39:00,
2013-02-05 01:44:00,6.8,1.8,29.91,NNW,335,0.0,2.0,79,0.00,,,0.00,meteohub,2013-02-05 06:44:00,
2013-02-05 01:49:00,6.8,1.8,29.92,NNW,335,0.0,2.0,79,0.00,,,0.00,meteohub,2013-02-05 06:49:00,
2013-02-05 01:54:00,6.8,1.8,29.92,NNW,335,0.0,2.0,79,0.00,,,0.00,meteohub,2013-02-05 06:54:00,
2013-02-05 01:59:00,6.6,1.6,29.91,NNW,335,0.0,0.0,79,0.00,,,0.00,meteohub,2013-02-05 06:59:00,
2013-02-05 02:04:00,6.4,1.4,29.91,NNW,335,0.0,1.0,79,0.00,,,0.00,meteohub,2013-02-05 07:04:00,
2013-02-05 02:10:00,6.4,1.6,29.91,East,101,1.0,1.0,80,0.00,,,0.00,meteohub,2013-02-05 07:10:00,
2013-02-05 02:15:00,6.3,1.4,29.91,East,100,0.0,1.0,80,0.00,,,0.00,meteohub,2013-02-05 07:15:00,
2013-02-05 02:20:00,6.1,1.2,29.92,East,100,0.0,1.0,80,0.00,,,0.00,meteohub,2013-02-05 07:20:00,
2013-02-05 02:25:00,6.1,1.2,29.92,East,99,0.0,1.0,80,0.00,,,0.00,meteohub,2013-02-05 07:25:00,
2013-02-05 02:30:00,5.9,1.4,29.92,NNE,27,0.0,1.0,81,0.00,,,0.00,meteohub,2013-02-05 07:30:00,
2013-02-05 02:35:00,5.7,1.2,29.92,NE,41,0.0,1.0,81,0.00,,,0.00,meteohub,2013-02-05 07:35:00,
2013-02-05 02:40:00,5.7,1.2,29.92,NNE,32,0.0,1.0,81,0.00,,,0.00,meteohub,2013-02-05 07:40:00,
2013-02-05 02:45:00,5.5,1.0,29.92,NNE,32,0.0,1.0,81,0.00,,,0.00,meteohub,2013-02-05 07:45:00,
2013-02-05 02:50:00,5.5,1.2,29.92,NNE,32,0.0,1.0,82,0.00,,,0.00,meteohub,2013-02-05 07:50:00,
2013-02-05 02:55:00,5.5,1.2,29.92,ESE,105,0.0,1.0,82,0.00,,,0.00,meteohub,2013-02-05 07:55:00,
2013-02-05 03:00:00,5.4,1.0,29.92,West,271,0.0,2.0,82,0.00,,,0.00,meteohub,2013-02-05 08:00:00,
2013-02-05 03:05:00,5.4,1.0,29.92,West,271,0.0,2.0,82,0.00,,,0.00,meteohub,2013-02-05 08:05:00,
2013-02-05 03:10:00,5.4,1.0,29.92,NW,326,0.0,2.0,82,0.00,,,0.00,meteohub,2013-02-05 08:10:00,
2013-02-05 03:15:00,5.4,1.4,29.92,NW,326,0.0,1.0,83,0.00,,,0.00,meteohub,2013-02-05 08:15:00,
2013-02-05 03:20:00,5.2,1.2,29.93,NW,326,0.0,1.0,83,0.00,,,0.00,meteohub,2013-02-05 08:20:00,
2013-02-05 03:25:00,5.2,1.2,29.93,NNW,328,0.0,1.0,83,0.00,,,0.00,meteohub,2013-02-05 08:25:00,
2013-02-05 03:30:00,4.8,0.9,29.93,NW,324,0.0,1.0,83,0.00,,,0.00,meteohub,2013-02-05 08:30:00,
2013-02-05 03:35:00,4.8,0.9,29.93,North,357,0.0,2.0,83,0.00,,,0.00,meteohub,2013-02-05 08:35:00,
2013-02-05 03:40:00,4.6,0.9,29.93,North,358,0.0,2.0,84,0.00,,,0.00,meteohub,2013-02-05 08:40:00,
2013-02-05 03:45:00,4.6,0.9,29.93,North,358,0.0,1.0,84,0.00,,,0.00,meteohub,2013-02-05 08:45:00,
2013-02-05 03:50:00,4.6,0.9,29.93,North,358,0.0,1.0,84,0.00,,,0.00,meteohub,2013-02-05 08:50:00,
2013-02-05 03:55:00,4.6,0.9,29.93,North,358,0.0,1.0,84,0.00,,,0.00,meteohub,2013-02-05 08:55:00,
2013-02-05 04:00:00,4.6,0.9,29.93,North,358,0.0,1.0,84,0.00,,,0.00,meteohub,2013-02-05 09:00:00,
2013-02-05 04:05:00,4.5,0.7,29.93,North,358,1.0,1.0,84,0.00,,,0.00,meteohub,2013-02-05 09:05:00,
2013-02-05 04:10:00,4.5,0.7,29.93,North,357,0.0,1.0,84,0.00,,,0.00,meteohub,2013-02-05 09:10:00,
2013-02-05 04:15:00,4.5,0.7,29.93,North,357,0.0,1.0,84,0.00,,,0.00,meteohub,2013-02-05 09:15:00,
2013-02-05 04:20:00,4.3,0.9,29.94,North,357,0.0,1.0,85,0.00,,,0.00,meteohub,2013-02-05 09:20:00,
2013-02-05 04:26:00,4.3,0.9,29.94,North,359,0.0,0.0,85,0.00,,,0.00,meteohub,2013-02-05 09:26:00,
2013-02-05 04:31:00,4.3,0.9,29.94,North,359,0.0,0.0,85,0.00,,,0.00,meteohub,2013-02-05 09:31:00,
2013-02-05 04:36:00,4.1,0.7,29.94,North,359,0.0,0.0,85,0.00,,,0.00,meteohub,2013-02-05 09:36:00,
2013-02-05 04:41:00,3.9,0.5,29.94,NNW,345,0.0,2.0,85,0.00,,,0.00,meteohub,2013-02-05 09:41:00,
2013-02-05 04:46:00,3.7,0.3,29.94,North,3,0.0,2.0,85,0.00,,,0.00,meteohub,2013-02-05 09:46:00,
2013-02-05 04:51:00,3.7,0.3,29.94,North,3,0.0,2.0,85,0.00,,,0.00,meteohub,2013-02-05 09:51:00,
2013-02-05 04:56:00,3.7,0.3,29.94,North,3,0.0,1.0,85,0.00,,,0.00,meteohub,2013-02-05 09:56:00,
2013-02-05 05:01:00,3.6,0.3,29.94,North,3,0.0,1.0,86,0.00,,,0.00,meteohub,2013-02-05 10:01:00,
2013-02-05 05:06:00,3.4,0.0,29.94,North,4,0.0,1.0,85,0.00,,,0.00,meteohub,2013-02-05 10:06:00,
2013-02-05 05:11:00,3.4,0.0,29.95,North,4,0.0,1.0,85,0.00,,,0.00,meteohub,2013-02-05 10:11:00,
2013-02-05 05:16:00,3.2,-0.2,29.95,North,4,0.0,1.0,85,0.00,,,0.00,meteohub,2013-02-05 10:16:00,
2013-02-05 05:21:00,3.0,-0.2,29.95,North,4,0.0,0.0,86,0.00,,,0.00,meteohub,2013-02-05 10:21:00,
2013-02-05 05:26:00,3.0,-0.2,29.95,North,4,0.0,0.0,86,0.00,,,0.00,meteohub,2013-02-05 10:26:00,
2013-02-05 05:31:00,2.8,-0.4,29.95,North,4,0.0,1.0,86,0.00,,,0.00,meteohub,2013-02-05 10:31:00,
2013-02-05 05:36:00,2.8,-0.4,29.95,North,4,0.0,1.0,86,0.00,,,0.00,meteohub,2013-02-05 10:36:00,
2013-02-05 05:41:00,2.7,-0.6,29.95,North,4,0.0,1.0,86,0.00,,,0.00,meteohub,2013-02-05 10:41:00,
2013-02-05 05:46:00,2.7,-0.6,29.95,North,4,0.0,1.0,86,0.00,,,0.00,meteohub,2013-02-05 10:46:00,
2013-02-05 05:51:00,2.5,-0.8,29.95,North,4,0.0,0.0,86,0.00,,,0.00,meteohub,2013-02-05 10:51:00,
2013-02-05 05:56:00,2.5,-0.8,29.95,North,4,0.0,0.0,86,0.00,,,0.00,meteohub,2013-02-05 10:56:00,
2013-02-05 06:01:00,2.5,-0.8,29.95,North,4,0.0,0.0,86,0.00,,,0.00,meteohub,2013-02-05 11:01:00,
2013-02-05 06:06:00,2.3,-0.9,29.95,North,4,0.0,0.0,86,0.00,,,0.00,meteohub,2013-02-05 11:06:00,
2013-02-05 06:11:00,2.1,-1.1,29.96,North,4,0.0,0.0,86,0.00,,,0.00,meteohub,2013-02-05 11:11:00,
2013-02-05 06:17:00,2.1,-0.9,29.96,North,4,0.0,0.0,87,0.00,,,0.00,meteohub,2013-02-05 11:17:00,
2013-02-05 06:22:00,2.1,-0.9,29.97,North,4,0.0,0.0,87,0.00,,,0.00,meteohub,2013-02-05 11:22:00,
2013-02-05 06:27:00,2.1,-0.9,29.97,North,4,0.0,0.0,87,0.00,,,0.00,meteohub,2013-02-05 11:27:00,
2013-02-05 06:32:00,2.1,-0.9,29.98,North,4,0.0,0.0,87,0.00,,,0.00,meteohub,2013-02-05 11:32:00,
2013-02-05 06:37:00,1.9,-1.1,29.98,North,4,0.0,0.0,87,0.00,,,0.00,meteohub,2013-02-05 11:37:00,
2013-02-05 06:42:00,1.9,-1.3,29.98,North,4,0.0,1.0,86,0.00,,,0.00,meteohub,2013-02-05 11:42:00,
2013-02-05 06:47:00,1.8,-1.5,29.98,North,4,0.0,1.0,86,0.00,,,0.00,meteohub,2013-02-05 11:47:00,
2013-02-05 06:52:00,1.8,-1.5,29.98,North,4,0.0,0.0,86,0.00,,,0.00,meteohub,2013-02-05 11:52:00,
2013-02-05 06:57:00,1.6,-1.7,29.98,North,4,0.0,0.0,86,0.00,,,0.00,meteohub,2013-02-05 11:57:00,
2013-02-05 07:02:00,1.6,-1.7,29.98,North,4,0.0,0.0,86,0.00,,,0.00,meteohub,2013-02-05 12:02:00,
2013-02-05 07:07:00,1.4,-1.8,29.99,North,4,0.0,1.0,86,0.00,,,0.00,meteohub,2013-02-05 12:07:00,
2013-02-05 07:12:00,1.4,-1.8,29.99,North,4,0.0,1.0,86,0.00,,,0.00,meteohub,2013-02-05 12:12:00,
2013-02-05 07:17:00,1.2,-2.0,29.99,North,4,0.0,1.0,86,0.00,,,0.00,meteohub,2013-02-05 12:17:00,
2013-02-05 07:22:00,1.2,-2.0,29.99,North,4,0.0,0.0,86,0.00,,,0.00,meteohub,2013-02-05 12:22:00,
2013-02-05 07:27:00,1.2,-2.0,29.99,North,4,0.0,0.0,86,0.00,,,0.00,meteohub,2013-02-05 12:27:00,
2013-02-05 07:32:00,1.4,-1.8,29.99,North,4,0.0,0.0,86,0.00,,,0.00,meteohub,2013-02-05 12:32:00,
2013-02-05 07:37:00,1.6,-1.7,30.00,North,4,0.0,0.0,86,0.00,,,0.00,meteohub,2013-02-05 12:37:00,
2013-02-05 07:42:00,1.6,-1.3,30.00,North,4,0.0,0.0,87,0.00,,,0.00,meteohub,2013-02-05 12:42:00,
2013-02-05 07:47:00,1.8,-1.1,30.00,North,4,0.0,0.0,87,0.00,,,0.00,meteohub,2013-02-05 12:47:00,
2013-02-05 07:52:00,1.9,-1.1,30.01,North,4,0.0,0.0,87,0.00,,,0.00,meteohub,2013-02-05 12:52:00,
2013-02-05 07:57:00,2.1,-0.9,30.01,North,4,0.0,0.0,87,0.00,,,0.00,meteohub,2013-02-05 12:57:00,
2013-02-05 08:02:00,2.3,-0.8,30.01,North,4,0.0,0.0,87,0.00,,,0.00,meteohub,2013-02-05 13:02:00,
2013-02-05 08:07:00,2.5,-0.6,30.01,North,4,0.0,0.0,87,0.00,,,0.00,meteohub,2013-02-05 13:07:00,
2013-02-05 08:12:00,2.8,-0.2,30.01,North,4,0.0,0.0,87,0.00,,,0.00,meteohub,2013-02-05 13:12:00,
2013-02-05 08:17:00,3.0,0.0,30.02,North,4,0.0,0.0,87,0.00,,,0.00,meteohub,2013-02-05 13:17:00,
2013-02-05 08:22:00,3.4,0.1,30.02,North,4,0.0,0.0,86,0.00,,,0.00,meteohub,2013-02-05 13:22:00,
2013-02-05 08:27:00,3.7,0.5,30.02,North,4,0.0,0.0,86,0.00,,,0.00,meteohub,2013-02-05 13:27:00,
2013-02-05 08:32:00,4.1,0.9,30.02,North,4,0.0,0.0,86,0.00,,,0.00,meteohub,2013-02-05 13:32:00,
2013-02-05 08:37:00,4.6,1.6,30.02,North,4,0.0,0.0,87,0.00,,,0.00,meteohub,2013-02-05 13:37:00,
2013-02-05 08:42:00,5.4,2.3,30.02,North,4,0.0,0.0,87,0.00,,,0.00,meteohub,2013-02-05 13:42:00,
2013-02-05 08:47:00,5.7,2.1,30.02,North,4,0.0,0.0,85,0.00,,,0.00,meteohub,2013-02-05 13:47:00,
2013-02-05 08:52:00,6.4,2.8,30.02,North,4,0.0,0.0,85,0.00,,,0.00,meteohub,2013-02-05 13:52:00,
2013-02-05 08:57:00,7.3,3.6,30.02,North,4,0.0,0.0,84,0.00,,,0.00,meteohub,2013-02-05 13:57:00,
2013-02-05 09:02:00,7.5,2.8,30.02,North,3,0.0,1.0,81,0.00,,,0.00,meteohub,2013-02-05 14:02:00,
2013-02-05 09:07:00,7.9,3.2,30.02,North,3,0.0,1.0,81,0.00,,,0.00,meteohub,2013-02-05 14:07:00,
2013-02-05 09:12:00,8.2,3.9,30.01,North,3,0.0,1.0,82,0.00,,,0.00,meteohub,2013-02-05 14:12:00,
2013-02-05 09:17:00,8.8,4.1,30.01,North,3,0.0,0.0,81,0.00,,,0.00,meteohub,2013-02-05 14:17:00,
2013-02-05 09:22:00,8.8,3.9,30.01,North,3,0.0,2.0,80,0.00,,,0.00,meteohub,2013-02-05 14:22:00,
2013-02-05 09:27:00,9.1,4.5,30.01,North,3,0.0,2.0,81,0.00,,,0.00,meteohub,2013-02-05 14:27:00,
2013-02-05 09:32:00,9.9,5.5,30.02,North,3,0.0,2.0,82,0.00,,,0.00,meteohub,2013-02-05 14:32:00,
2013-02-05 09:37:00,10.6,5.4,30.01,North,3,0.0,1.0,79,0.00,,,0.00,meteohub,2013-02-05 14:37:00,
2013-02-05 09:42:00,11.1,5.5,30.01,North,3,0.0,1.0,78,0.00,,,0.00,meteohub,2013-02-05 14:42:00,
2013-02-05 09:47:00,11.7,5.9,30.01,North,3,0.0,1.0,77,0.00,,,0.00,meteohub,2013-02-05 14:47:00,
2013-02-05 09:52:00,11.8,5.7,30.02,North,3,1.0,1.0,76,0.00,,,0.00,meteohub,2013-02-05 14:52:00,
2013-02-05 09:57:00,12.4,5.9,30.01,North,3,2.0,2.0,75,0.00,,,0.00,meteohub,2013-02-05 14:57:00,
2013-02-05 10:02:00,13.1,7.0,30.01,East,80,1.0,2.0,76,0.00,,,0.00,meteohub,2013-02-05 15:02:00,
2013-02-05 10:07:00,13.6,7.0,30.01,NNE,27,1.0,2.0,74,0.00,,,0.00,meteohub,2013-02-05 15:07:00,
2013-02-05 10:12:00,14.2,7.3,30.01,NNE,27,0.0,2.0,74,0.00,,,0.00,meteohub,2013-02-05 15:12:00,
2013-02-05 10:17:00,15.1,8.2,30.01,ESE,115,0.0,2.0,74,0.00,,,0.00,meteohub,2013-02-05 15:17:00,
2013-02-05 10:22:00,16.3,8.6,30.01,ESE,123,1.0,2.0,71,0.00,,,0.00,meteohub,2013-02-05 15:22:00,
2013-02-05 10:27:00,17.2,7.5,30.01,NNW,347,0.0,3.0,65,0.00,,,0.00,meteohub,2013-02-05 15:27:00,
2013-02-05 10:32:00,17.4,7.3,30.01,NNW,328,0.0,3.0,64,0.00,,,0.00,meteohub,2013-02-05 15:32:00,
2013-02-05 10:37:00,18.0,7.2,30.01,NW,324,2.0,3.0,62,0.00,,,0.00,meteohub,2013-02-05 15:37:00,
2013-02-05 10:42:00,18.7,7.2,30.01,ESE,111,0.0,5.0,60,0.00,,,0.00,meteohub,2013-02-05 15:42:00,
2013-02-05 10:47:00,19.4,7.0,30.01,NW,324,4.0,5.0,58,0.00,,,0.00,meteohub,2013-02-05 15:47:00,
2013-02-05 10:52:00,19.0,6.3,30.01,NNW,348,4.0,6.0,57,0.00,,,0.00,meteohub,2013-02-05 15:52:00,
2013-02-05 10:57:00,19.0,6.6,30.01,NW,322,2.0,7.0,58,0.00,,,0.00,meteohub,2013-02-05 15:57:00,
2013-02-05 11:02:00,18.9,6.4,30.01,North,10,4.0,9.0,58,0.00,,,0.00,meteohub,2013-02-05 16:02:00,
2013-02-05 11:07:00,18.7,6.4,30.01,NNW,345,4.0,9.0,58,0.00,,,0.00,meteohub,2013-02-05 16:07:00,
2013-02-05 11:12:00,18.9,7.0,30.00,SSE,151,0.0,11.0,59,0.00,,,0.00,meteohub,2013-02-05 16:12:00,
2013-02-05 11:17:00,19.0,5.9,30.00,NNW,341,6.0,11.0,56,0.00,,,0.00,meteohub,2013-02-05 16:17:00,
2013-02-05 11:22:00,19.0,6.3,30.00,NW,317,2.0,11.0,57,0.00,,,0.00,meteohub,2013-02-05 16:22:00,
2013-02-05 11:27:00,19.6,6.4,29.99,NNW,344,0.0,8.0,56,0.00,,,0.00,meteohub,2013-02-05 16:27:00,
2013-02-05 11:32:00,19.6,6.8,29.99,WSW,246,0.0,8.0,57,0.00,,,0.00,meteohub,2013-02-05 16:32:00,
2013-02-05 11:37:00,20.3,7.2,29.99,NNW,341,1.0,6.0,56,0.00,,,0.00,meteohub,2013-02-05 16:37:00,
2013-02-05 11:42:00,20.1,7.0,29.99,NW,322,4.0,7.0,56,0.00,,,0.00,meteohub,2013-02-05 16:42:00,
2013-02-05 11:47:00,20.1,6.6,29.99,NNW,332,4.0,7.0,55,0.00,,,0.00,meteohub,2013-02-05 16:47:00,
2013-02-05 11:52:00,20.1,6.1,29.99,WNW,303,2.0,7.0,54,0.00,,,0.00,meteohub,2013-02-05 16:52:00,
2013-02-05 11:57:00,20.3,6.8,29.99,East,100,0.0,11.0,55,0.00,,,0.00,meteohub,2013-02-05 16:57:00,
2013-02-05 12:02:00,20.5,6.8,29.99,NW,315,2.0,11.0,55,0.00,,,0.00,meteohub,2013-02-05 17:02:00,
2013-02-05 12:07:00,20.5,6.8,29.98,NW,326,10.0,11.0,55,0.00,,,0.00,meteohub,2013-02-05 17:07:00,
2013-02-05 12:12:00,20.5,6.4,29.98,NW,324,5.0,14.0,54,0.00,,,0.00,meteohub,2013-02-05 17:12:00,
2013-02-05 12:17:00,20.5,6.8,29.98,ESE,111,0.0,14.0,55,0.00,,,0.00,meteohub,2013-02-05 17:17:00,
2013-02-05 12:22:00,21.2,7.5,29.98,West,276,3.0,13.0,55,0.00,,,0.00,meteohub,2013-02-05 17:22:00,
2013-02-05 12:27:00,21.4,7.0,29.98,NNW,338,2.0,10.0,53,0.00,,,0.00,meteohub,2013-02-05 17:27:00,
2013-02-05 12:32:00,21.2,6.8,29.97,WNW,297,0.0,8.0,53,0.00,,,0.00,meteohub,2013-02-05 17:32:00,
2013-02-05 12:37:00,21.0,7.0,29.97,NW,316,0.0,8.0,54,0.00,,,0.00,meteohub,2013-02-05 17:37:00,
2013-02-05 12:42:00,21.0,7.3,29.97,NNW,345,4.0,7.0,55,0.00,,,0.00,meteohub,2013-02-05 17:42:00,
2013-02-05 12:47:00,21.0,7.0,29.97,NW,314,4.0,5.0,54,0.00,,,0.00,meteohub,2013-02-05 17:47:00,
2013-02-05 12:52:00,21.0,7.3,29.96,NNW,341,6.0,6.0,55,0.00,,,0.00,meteohub,2013-02-05 17:52:00,
2013-02-05 12:57:00,21.0,7.0,29.96,NNW,345,0.0,10.0,54,0.00,,,0.00,meteohub,2013-02-05 17:57:00,
2013-02-05 13:02:00,21.0,7.0,29.96,North,11,4.0,10.0,54,0.00,,,0.00,meteohub,2013-02-05 18:02:00,
2013-02-05 13:07:00,21.0,7.0,29.96,North,358,3.0,10.0,54,0.00,,,0.00,meteohub,2013-02-05 18:07:00,
2013-02-05 13:12:00,21.4,8.1,29.96,NNW,343,3.0,7.0,56,0.00,,,0.00,meteohub,2013-02-05 18:12:00,
2013-02-05 13:17:00,21.4,7.7,29.96,NNW,347,1.0,7.0,55,0.00,,,0.00,meteohub,2013-02-05 18:17:00,
2013-02-05 13:22:00,21.4,7.3,29.96,NNW,337,0.0,7.0,54,0.00,,,0.00,meteohub,2013-02-05 18:22:00,
2013-02-05 13:27:00,21.4,8.1,29.95,North,359,2.0,4.0,56,0.00,,,0.00,meteohub,2013-02-05 18:27:00,
2013-02-05 13:32:00,21.7,7.7,29.95,NNW,346,5.0,6.0,54,0.00,,,0.00,meteohub,2013-02-05 18:32:00,
2013-02-05 13:37:00,21.7,7.7,29.95,NNW,348,2.0,8.0,54,0.00,,,0.00,meteohub,2013-02-05 18:37:00,
2013-02-05 13:42:00,21.7,8.1,29.95,NNW,346,2.0,9.0,55,0.00,,,0.00,meteohub,2013-02-05 18:42:00,
2013-02-05 13:47:00,21.9,7.9,29.95,NNW,337,3.0,9.0,54,0.00,,,0.00,meteohub,2013-02-05 18:47:00,
2013-02-05 13:52:00,21.9,7.9,29.94,NNE,12,0.0,5.0,54,0.00,,,0.00,meteohub,2013-02-05 18:52:00,
2013-02-05 13:57:00,22.3,8.2,29.94,NNW,340,2.0,4.0,54,0.00,,,0.00,meteohub,2013-02-05 18:57:00,
2013-02-05 14:02:00,22.5,9.1,29.94,North,351,1.0,4.0,56,0.00,,,0.00,meteohub,2013-02-05 19:02:00,
2013-02-05 14:07:00,22.6,9.0,29.94,North,353,2.0,2.0,55,0.00,,,0.00,meteohub,2013-02-05 19:07:00,
2013-02-05 14:12:00,22.6,8.4,29.94,NNW,339,1.0,3.0,54,0.00,,,0.00,meteohub,2013-02-05 19:12:00,
2013-02-05 14:17:00,22.6,8.4,29.94,North,351,1.0,3.0,54,0.00,,,0.00,meteohub,2013-02-05 19:17:00,
2013-02-05 14:22:00,22.8,8.6,29.94,NNW,347,3.0,4.0,54,0.00,,,0.00,meteohub,2013-02-05 19:22:00,
2013-02-05 14:27:00,23.2,8.6,29.94,NNW,336,1.0,4.0,53,0.00,,,0.00,meteohub,2013-02-05 19:27:00,
2013-02-05 14:32:00,23.4,8.4,29.93,North,357,2.0,4.0,52,0.00,,,0.00,meteohub,2013-02-05 19:32:00,
2013-02-05 14:37:00,23.5,8.4,29.94,NNW,339,0.0,6.0,52,0.00,,,0.00,meteohub,2013-02-05 19:37:00,
2013-02-05 14:42:00,23.5,8.4,29.93,NW,326,2.0,6.0,52,0.00,,,0.00,meteohub,2013-02-05 19:42:00,
2013-02-05 14:47:00,23.7,9.1,29.93,SE,137,2.0,6.0,53,0.00,,,0.00,meteohub,2013-02-05 19:47:00,
2013-02-05 14:52:00,23.7,9.1,29.93,SE,144,0.0,2.0,53,0.00,,,0.00,meteohub,2013-02-05 19:52:00,
2013-02-05 14:57:00,24.1,8.6,29.93,NW,314,2.0,2.0,51,0.00,,,0.00,meteohub,2013-02-05 19:57:00,
2013-02-05 15:02:00,24.1,9.0,29.93,NNW,327,0.0,2.0,52,0.00,,,0.00,meteohub,2013-02-05 20:02:00,
2013-02-05 15:07:00,24.3,10.0,29.93,NNW,327,0.0,2.0,54,0.00,,,0.00,meteohub,2013-02-05 20:07:00,
2013-02-05 15:12:00,24.3,8.2,29.93,North,349,0.0,2.0,50,0.00,,,0.00,meteohub,2013-02-05 20:12:00,
2013-02-05 15:17:00,24.4,8.4,29.94,North,349,0.0,4.0,50,0.00,,,0.00,meteohub,2013-02-05 20:17:00,
2013-02-05 15:22:00,24.4,9.0,29.94,North,349,0.0,4.0,51,0.00,,,0.00,meteohub,2013-02-05 20:22:00,
2013-02-05 15:27:00,24.3,9.1,29.94,North,349,0.0,4.0,52,0.00,,,0.00,meteohub,2013-02-05 20:27:00,
2013-02-05 15:32:00,24.3,9.7,29.93,North,349,0.0,2.0,53,0.00,,,0.00,meteohub,2013-02-05 20:32:00,
2013-02-05 15:37:00,24.3,9.1,29.93,North,349,0.0,2.0,52,0.00,,,0.00,meteohub,2013-02-05 20:37:00,
2013-02-05 15:42:00,24.1,9.5,29.93,North,349,0.0,0.0,53,0.00,,,0.00,meteohub,2013-02-05 20:42:00,
2013-02-05 15:47:00,24.1,9.0,29.92,North,349,0.0,0.0,52,0.00,,,0.00,meteohub,2013-02-05 20:47:00,
2013-02-05 15:52:00,23.9,9.3,29.92,North,349,0.0,0.0,53,0.00,,,0.00,meteohub,2013-02-05 20:52:00,
2013-02-05 15:57:00,23.7,8.6,29.92,North,349,0.0,0.0,52,0.00,,,0.00,meteohub,2013-02-05 20:57:00,
2013-02-05 16:02:00,23.7,9.1,29.93,North,349,0.0,0.0,53,0.00,,,0.00,meteohub,2013-02-05 21:02:00,
2013-02-05 16:07:00,23.7,9.1,29.93,North,349,0.0,0.0,53,0.00,,,0.00,meteohub,2013-02-05 21:07:00,
2013-02-05 16:12:00,23.9,8.8,29.92,North,349,0.0,0.0,52,0.00,,,0.00,meteohub,2013-02-05 21:12:00,
2013-02-05 16:17:00,23.5,10.2,29.93,North,349,0.0,0.0,56,0.00,,,0.00,meteohub,2013-02-05 21:17:00,
2013-02-05 16:22:00,23.4,10.0,29.93,North,349,0.0,0.0,56,0.00,,,0.00,meteohub,2013-02-05 21:22:00,
2013-02-05 16:27:00,23.0,10.0,29.93,North,349,0.0,0.0,57,0.00,,,0.00,meteohub,2013-02-05 21:27:00,
2013-02-05 16:32:00,22.8,9.5,29.94,North,349,0.0,0.0,56,0.00,,,0.00,meteohub,2013-02-05 21:32:00,
2013-02-05 16:37:00,22.8,9.5,29.94,North,349,0.0,0.0,56,0.00,,,0.00,meteohub,2013-02-05 21:37:00,
2013-02-05 16:42:00,22.6,9.7,29.94,NNW,348,0.0,1.0,57,0.00,,,0.00,meteohub,2013-02-05 21:42:00,
2013-02-05 16:47:00,22.6,9.7,29.94,NNW,348,0.0,2.0,57,0.00,,,0.00,meteohub,2013-02-05 21:47:00,
2013-02-05 16:52:00,22.5,10.8,29.94,NNW,348,0.0,2.0,60,0.00,,,0.00,meteohub,2013-02-05 21:52:00,
2013-02-05 16:57:00,22.3,10.6,29.94,NNW,348,0.0,2.0,60,0.00,,,0.00,meteohub,2013-02-05 21:57:00,
2013-02-05 17:02:00,21.9,10.6,29.94,NNW,348,0.0,1.0,61,0.00,,,0.00,meteohub,2013-02-05 22:02:00,
2013-02-05 17:07:00,21.9,10.6,29.94,NNW,348,0.0,2.0,61,0.00,,,0.00,meteohub,2013-02-05 22:07:00,
2013-02-05 17:12:00,21.7,10.0,29.93,NNW,348,0.0,2.0,60,0.00,,,0.00,meteohub,2013-02-05 22:12:00,
2013-02-05 17:17:00,21.6,10.2,29.93,NNW,348,0.0,2.0,61,0.00,,,0.00,meteohub,2013-02-05 22:17:00,
2013-02-05 17:22:00,21.4,9.7,29.93,NNW,348,0.0,1.0,60,0.00,,,0.00,meteohub,2013-02-05 22:22:00,
2013-02-05 17:27:00,21.4,10.4,29.93,NNW,348,0.0,1.0,62,0.00,,,0.00,meteohub,2013-02-05 22:27:00,
2013-02-05 17:32:00,21.0,10.0,29.92,NNW,348,0.0,1.0,62,0.00,,,0.00,meteohub,2013-02-05 22:32:00,
2013-02-05 17:37:00,20.8,9.9,29.92,North,1,0.0,0.0,62,0.00,,,0.00,meteohub,2013-02-05 22:37:00,
2013-02-05 17:42:00,20.8,10.6,29.92,North,1,0.0,1.0,64,0.00,,,0.00,meteohub,2013-02-05 22:42:00,
2013-02-05 17:47:00,20.5,10.6,29.92,North,1,0.0,1.0,65,0.00,,,0.00,meteohub,2013-02-05 22:47:00,
2013-02-05 17:52:00,20.3,10.4,29.93,North,1,0.0,0.0,65,0.00,,,0.00,meteohub,2013-02-05 22:52:00,
2013-02-05 17:57:00,19.9,9.7,29.92,North,1,0.0,0.0,64,0.00,,,0.00,meteohub,2013-02-05 22:57:00,
2013-02-05 18:02:00,19.8,10.2,29.92,North,1,0.0,0.0,66,0.00,,,0.00,meteohub,2013-02-05 23:02:00,
2013-02-05 18:07:00,19.6,9.7,29.92,North,1,0.0,0.0,65,0.00,,,0.00,meteohub,2013-02-05 23:07:00,
2013-02-05 18:12:00,19.2,10.0,29.92,North,1,0.0,0.0,67,0.00,,,0.00,meteohub,2013-02-05 23:12:00,
2013-02-05 18:17:00,19.0,9.9,29.92,North,1,0.0,0.0,67,0.00,,,0.00,meteohub,2013-02-05 23:17:00,
2013-02-05 18:22:00,18.7,9.5,29.92,North,1,0.0,0.0,67,0.00,,,0.00,meteohub,2013-02-05 23:22:00,
2013-02-05 18:27:00,18.7,9.1,29.92,North,1,0.0,0.0,66,0.00,,,0.00,meteohub,2013-02-05 23:27:00,
2013-02-05 18:32:00,18.3,9.1,29.92,North,1,0.0,0.0,67,0.00,,,0.00,meteohub,2013-02-05 23:32:00,
2013-02-05 18:37:00,18.3,9.1,29.92,North,1,0.0,0.0,67,0.00,,,0.00,meteohub,2013-02-05 23:37:00,
2013-02-05 18:42:00,18.1,9.0,29.93,North,1,0.0,0.0,67,0.00,,,0.00,meteohub,2013-02-05 23:42:00,
2013-02-05 18:47:00,18.0,10.4,29.93,North,1,0.0,0.0,72,0.00,,,0.00,meteohub,2013-02-05 23:47:00,
2013-02-05 18:52:00,17.8,9.3,29.93,North,1,0.0,0.0,69,0.00,,,0.00,meteohub,2013-02-05 23:52:00,
2013-02-05 18:57:00,17.6,9.5,29.93,North,1,0.0,0.0,70,0.00,,,0.00,meteohub,2013-02-05 23:57:00,
2013-02-05 19:02:00,17.4,9.7,29.93,North,1,0.0,0.0,71,0.00,,,0.00,meteohub,2013-02-06 00:02:00,
2013-02-05 19:07:00,17.2,9.1,29.93,North,1,0.0,0.0,70,0.00,,,0.00,meteohub,2013-02-06 00:07:00,
2013-02-05 19:12:00,17.2,9.1,29.93,North,1,0.0,0.0,70,0.00,,,0.00,meteohub,2013-02-06 00:12:00,
2013-02-05 19:17:00,17.1,9.3,29.93,North,1,0.0,0.0,71,0.00,,,0.00,meteohub,2013-02-06 00:17:00,
2013-02-05 19:22:00,16.9,9.5,29.94,North,1,0.0,0.0,72,0.00,,,0.00,meteohub,2013-02-06 00:22:00,
2013-02-05 19:27:00,16.7,9.5,29.93,North,1,0.0,0.0,73,0.00,,,0.00,meteohub,2013-02-06 00:27:00,
2013-02-05 19:32:00,16.5,9.7,29.93,North,1,0.0,0.0,74,0.00,,,0.00,meteohub,2013-02-06 00:32:00,
2013-02-05 19:37:00,16.5,9.3,29.94,North,1,0.0,0.0,73,0.00,,,0.00,meteohub,2013-02-06 00:37:00,
2013-02-05 19:42:00,16.5,10.2,29.93,North,1,0.0,0.0,76,0.00,,,0.00,meteohub,2013-02-06 00:42:00,
2013-02-05 19:47:00,16.7,10.8,29.94,North,1,0.0,0.0,77,0.00,,,0.00,meteohub,2013-02-06 00:47:00,
2013-02-05 19:52:00,16.7,10.4,29.94,North,1,0.0,0.0,76,0.00,,,0.00,meteohub,2013-02-06 00:52:00,
2013-02-05 19:57:00,16.9,10.6,29.94,North,1,0.0,0.0,76,0.00,,,0.00,meteohub,2013-02-06 00:57:00,
2013-02-05 20:02:00,17.1,11.1,29.94,North,1,0.0,0.0,77,0.00,,,0.00,meteohub,2013-02-06 01:02:00,
2013-02-05 20:07:00,17.2,10.0,29.94,North,1,0.0,1.0,73,0.00,,,0.00,meteohub,2013-02-06 01:07:00,
2013-02-05 20:12:00,17.2,10.8,29.94,North,1,0.0,1.0,75,0.00,,,0.00,meteohub,2013-02-06 01:12:00,
2013-02-05 20:17:00,17.4,10.9,29.94,North,1,0.0,0.0,75,0.00,,,0.00,meteohub,2013-02-06 01:17:00,
2013-02-05 20:22:00,17.6,11.1,29.94,North,1,0.0,0.0,75,0.00,,,0.00,meteohub,2013-02-06 01:22:00,
2013-02-05 20:27:00,17.8,11.1,29.94,North,1,0.0,0.0,75,0.00,,,0.00,meteohub,2013-02-06 01:27:00,
2013-02-05 20:32:00,17.8,11.1,29.93,North,1,0.0,0.0,75,0.00,,,0.00,meteohub,2013-02-06 01:32:00,
2013-02-05 20:37:00,17.8,10.6,29.93,North,1,0.0,0.0,73,0.00,,,0.00,meteohub,2013-02-06 01:37:00,
2013-02-05 20:42:00,17.8,11.1,29.93,North,1,0.0,0.0,75,0.00,,,0.00,meteohub,2013-02-06 01:42:00,
2013-02-05 20:47:00,17.8,10.9,29.93,North,1,0.0,0.0,74,0.00,,,0.00,meteohub,2013-02-06 01:47:00,
2013-02-05 20:52:00,17.8,10.9,29.93,North,1,0.0,0.0,74,0.00,,,0.00,meteohub,2013-02-06 01:52:00,
2013-02-05 20:57:00,17.8,10.6,29.93,North,1,0.0,0.0,73,0.00,,,0.00,meteohub,2013-02-06 01:57:00,
2013-02-05 21:02:00,17.8,10.6,29.93,North,1,0.0,0.0,73,0.00,,,0.00,meteohub,2013-02-06 02:02:00,
2013-02-05 21:07:00,17.6,10.4,29.92,North,1,0.0,0.0,73,0.00,,,0.00,meteohub,2013-02-06 02:07:00,
2013-02-05 21:12:00,17.6,10.4,29.92,North,1,0.0,0.0,73,0.00,,,0.00,meteohub,2013-02-06 02:12:00,
2013-02-05 21:17:00,17.4,10.6,29.92,North,1,0.0,0.0,74,0.00,,,0.00,meteohub,2013-02-06 02:17:00,
2013-02-05 21:22:00,17.4,10.6,29.93,North,1,0.0,0.0,74,0.00,,,0.00,meteohub,2013-02-06 02:22:00,
2013-02-05 21:27:00,17.2,10.4,29.93,North,1,0.0,0.0,74,0.00,,,0.00,meteohub,2013-02-06 02:27:00,
2013-02-05 21:32:00,17.2,11.3,29.92,North,1,1.0,0.0,77,0.00,,,0.00,meteohub,2013-02-06 02:32:00,
2013-02-05 21:37:00,17.2,11.3,29.92,North,1,0.0,1.0,77,0.00,,,0.00,meteohub,2013-02-06 02:37:00,
2013-02-05 21:42:00,17.2,10.9,29.92,North,1,0.0,1.0,76,0.00,,,0.00,meteohub,2013-02-06 02:42:00,
2013-02-05 21:47:00,17.1,10.8,29.92,North,1,0.0,1.0,76,0.00,,,0.00,meteohub,2013-02-06 02:47:00,
2013-02-05 21:52:00,17.1,10.8,29.92,North,1,0.0,1.0,76,0.00,,,0.00,meteohub,2013-02-06 02:52:00,
2013-02-05 21:57:00,16.9,10.9,29.92,North,1,0.0,1.0,77,0.00,,,0.00,meteohub,2013-02-06 02:57:00,
2013-02-05 22:02:00,16.9,10.9,29.92,North,1,0.0,1.0,77,0.00,,,0.00,meteohub,2013-02-06 03:02:00,
2013-02-05 22:08:00,16.7,10.8,29.92,North,1,0.0,1.0,77,0.00,,,0.00,meteohub,2013-02-06 03:08:00,
2013-02-05 22:13:00,16.5,10.6,29.92,North,1,0.0,0.0,77,0.00,,,0.00,meteohub,2013-02-06 03:13:00,
2013-02-05 22:18:00,16.5,10.6,29.92,NNW,336,0.0,1.0,77,0.00,,,0.00,meteohub,2013-02-06 03:18:00,
2013-02-05 22:23:00,16.7,10.8,29.92,NNW,336,0.0,2.0,77,0.00,,,0.00,meteohub,2013-02-06 03:23:00,
2013-02-05 22:28:00,16.9,11.3,29.92,NNW,336,0.0,2.0,78,0.00,,,0.00,meteohub,2013-02-06 03:28:00,
2013-02-05 22:33:00,16.9,11.3,29.92,NNW,342,0.0,2.0,78,0.00,,,0.00,meteohub,2013-02-06 03:33:00,
2013-02-05 22:38:00,16.9,10.9,29.92,NNW,342,0.0,1.0,77,0.00,,,0.00,meteohub,2013-02-06 03:38:00,
2013-02-05 22:43:00,16.9,10.9,29.92,NNW,342,0.0,1.0,77,0.00,,,0.00,meteohub,2013-02-06 03:43:00,
2013-02-05 22:48:00,16.9,10.9,29.92,NNW,342,0.0,0.0,77,0.00,,,0.00,meteohub,2013-02-06 03:48:00,
2013-02-05 22:53:00,16.9,11.3,29.92,NNW,342,0.0,0.0,78,0.00,,,0.00,meteohub,2013-02-06 03:53:00,
2013-02-05 22:58:00,17.1,11.1,29.92,NNW,342,0.0,0.0,77,0.00,,,0.00,meteohub,2013-02-06 03:58:00,
2013-02-05 23:03:00,17.1,11.1,29.92,NNW,342,0.0,0.0,77,0.00,,,0.00,meteohub,2013-02-06 04:03:00,
2013-02-05 23:08:00,17.2,11.3,29.92,NNW,342,1.0,1.0,77,0.00,,,0.00,meteohub,2013-02-06 04:08:00,
2013-02-05 23:13:00,17.2,11.3,29.92,NNW,342,0.0,1.0,77,0.00,,,0.00,meteohub,2013-02-06 04:13:00,
2013-02-05 23:18:00,17.2,11.3,29.92,NNW,342,0.0,1.0,77,0.00,,,0.00,meteohub,2013-02-06 04:18:00,
2013-02-05 23:23:00,17.2,10.9,29.93,NNW,342,0.0,1.0,76,0.00,,,0.00,meteohub,2013-02-06 04:23:00,
2013-02-05 23:28:00,17.2,11.3,29.93,NNW,342,0.0,1.0,77,0.00,,,0.00,meteohub,2013-02-06 04:28:00,
2013-02-05 23:33:00,17.2,11.3,29.92,NNW,342,0.0,0.0,77,0.00,,,0.00,meteohub,2013-02-06 04:33:00,
2013-02-05 23:38:00,17.2,10.9,29.92,NNW,342,0.0,0.0,76,0.00,,,0.00,meteohub,2013-02-06 04:38:00,
2013-02-05 23:43:00,17.2,11.3,29.92,NNW,342,0.0,0.0,77,0.00,,,0.00,meteohub,2013-02-06 04:43:00,
2013-02-05 23:49:00,17.4,11.7,29.92,NNW,342,0.0,1.0,78,0.00,,,0.00,meteohub,2013-02-06 04:49:00,
2013-02-05 23:54:00,17.4,11.7,29.92,NNW,342,0.0,1.0,78,0.00,,,0.00,meteohub,2013-02-06 04:54:00,
2013-02-05 23:59:00,17.6,11.7,29.92,NNW,342,0.0,1.0,77,0.00,,,0.00,meteohub,2013-02-06 04:59:00,